Time;durP1;ratioP1;P1;durP2;ratioP2;P2;SDS_P1;SDS_P2;PMS_P1;PMS_P2;Temp;Humidity;BMP_temperature;BMP_pressure;BME280_temperature;BME280_humidity;BME280_pressure;Samples;Min_cycle;Max_cycle;Signal;HPM_P1;HPM_P2
2023/01/02 00:00:24;;;;;;;;;;;6.20;99.90;;;;;;5009888;28;19960;-71
2023/01/02 00:02:53;;;;;;;;;;;6.20;99.90;;;;;;5010934;28;19971;-72
2023/01/02 00:05:23;;;;;;;;;;;6.10;99.90;;;;;;5009636;28;19925;-73
2023/01/02 00:07:52;;;;;;;;;;;6.10;99.90;;;;;;5011929;28;20086;-71
2023/01/02 00:10:22;;;;;;;;;;;5.90;99.90;;;;;;5032568;28;20028;-72
2023/01/02 00:12:53;;;;;;;;;;;5.90;99.90;;;;;;5028495;28;19929;-72
2023/01/02 00:15:23;;;;;;;;;;;5.80;99.90;;;;;;5029467;28;19932;-72
2023/01/02 00:17:52;;;;;;;;;;;5.80;99.90;;;;;;5011734;28;20598;-72
2023/01/02 00:20:24;;;;;;;;;;;5.80;99.90;;;;;;5014402;28;19975;-72
2023/01/02 00:22:56;;;;;;;;;;;5.80;99.90;;;;;;4998997;28;20284;-72
2023/01/02 00:25:25;;;;;;;;;;;5.80;99.90;;;;;;5008026;28;20145;-72
2023/01/02 00:27:57;;;;;;;;;;;5.80;99.90;;;;;;5014564;28;19926;-72
2023/01/02 00:30:28;;;;;;;;;;;5.70;99.90;;;;;;5018968;28;19964;-72
2023/01/02 00:32:57;;;;;;;;;;;5.70;99.90;;;;;;4996599;28;19932;-72
2023/01/02 00:35:27;;;;;;;;;;;5.80;99.90;;;;;;5030668;28;19932;-71
2023/01/02 00:37:58;;;;;;;;;;;5.70;99.90;;;;;;4996608;28;19936;-71
2023/01/02 00:40:28;;;;;;;;;;;5.70;99.90;;;;;;5027801;28;20415;-72
2023/01/02 00:42:58;;;;;;;;;;;5.70;99.90;;;;;;5017813;28;19929;-72
2023/01/02 00:45:26;;;;;;;;;;;5.70;99.90;;;;;;4999639;28;20334;-73
2023/01/02 00:47:56;;;;;;;;;;;5.70;99.90;;;;;;4997651;28;19933;-71
2023/01/02 00:50:27;;;;;;;;;;;5.70;99.90;;;;;;4997614;28;20347;-71
2023/01/02 00:52:57;;;;;;;;;;;5.60;99.90;;;;;;4998680;28;19925;-73
2023/01/02 00:55:27;;;;;;;;;;;5.60;99.90;;;;;;5012858;28;20468;-72
2023/01/02 00:57:56;;;;;;;;;;;5.60;99.90;;;;;;5012161;28;19929;-72
2023/01/02 01:00:26;;;;;;;;;;;5.60;99.90;;;;;;5024881;28;19929;-72
2023/01/02 01:02:56;;;;;;;;;;;5.60;99.90;;;;;;5020167;28;19925;-72
2023/01/02 01:05:26;;;;;;;;;;;5.50;99.90;;;;;;5000360;28;20020;-72
2023/01/02 01:07:58;;;;;;;;;;;5.50;99.90;;;;;;5013232;28;19925;-72
2023/01/02 01:10:28;;;;;;;;;;;5.50;99.90;;;;;;4980728;28;19926;-72
2023/01/02 01:13:01;;;;;;;;;;;5.50;99.90;;;;;;5004752;28;19968;-71
2023/01/02 01:15:30;;;;;;;;;;;5.50;99.90;;;;;;5026197;28;19925;-71
2023/01/02 01:17:59;;;;;;;;;;;5.40;99.90;;;;;;5014488;28;19925;-71
2023/01/02 01:20:29;;;;;;;;;;;5.50;99.90;;;;;;5012977;28;19926;-72
2023/01/02 01:22:59;;;;;;;;;;;5.40;99.90;;;;;;5005500;28;19941;-71
2023/01/02 01:25:28;;;;;;;;;;;5.40;99.90;;;;;;5014095;28;20289;-71
2023/01/02 01:27:57;;;;;;;;;;;5.40;99.90;;;;;;5018659;28;19932;-71
2023/01/02 01:30:27;;;;;;;;;;;5.40;99.90;;;;;;5012546;28;19929;-72
2023/01/02 01:32:55;;;;;;;;;;;5.40;99.90;;;;;;4998304;28;19925;-73
2023/01/02 01:35:24;;;;;;;;;;;5.40;99.90;;;;;;5022838;28;20003;-71
2023/01/02 01:37:54;;;;;;;;;;;5.50;99.90;;;;;;5014240;28;19968;-71
2023/01/02 01:40:23;;;;;;;;;;;5.50;99.90;;;;;;5020206;28;20023;-72
2023/01/02 01:42:53;;;;;;;;;;;5.50;99.90;;;;;;4996776;28;19933;-72
2023/01/02 01:45:22;;;;;;;;;;;5.50;99.90;;;;;;4994316;28;20134;-71
2023/01/02 01:47:55;;;;;;;;;;;5.50;99.90;;;;;;5020032;28;19925;-72
2023/01/02 01:50:32;;;;;;;;;;;5.50;99.90;;;;;;5004965;28;19924;-72
2023/01/02 01:53:05;;;;;;;;;;;5.50;99.90;;;;;;5004835;28;19948;-72
2023/01/02 01:55:35;;;;;;;;;;;5.60;99.90;;;;;;5010975;28;20455;-72
2023/01/02 01:58:07;;;;;;;;;;;5.60;99.90;;;;;;5020312;28;19925;-70
2023/01/02 02:00:36;;;;;;;;;;;5.60;99.90;;;;;;5011703;28;19928;-73
2023/01/02 02:03:07;;;;;;;;;;;5.60;99.90;;;;;;5017706;28;19933;-76
2023/01/02 02:05:39;;;;;;;;;;;5.60;99.90;;;;;;5011866;28;19926;-71
2023/01/02 02:08:12;;;;;;;;;;;5.60;99.90;;;;;;5016424;28;19929;-72
2023/01/02 02:10:42;;;;;;;;;;;5.50;99.90;;;;;;4996876;28;19935;-71
2023/01/02 02:13:12;;;;;;;;;;;5.50;99.90;;;;;;5023371;28;19933;-71
2023/01/02 02:15:59;;;;;;;;;;;5.40;99.90;;;;;;5010842;28;19933;-71
2023/01/02 02:18:46;;;;;;;;;;;5.40;99.90;;;;;;5011002;28;20654;-71
2023/01/02 02:21:18;;;;;;;;;;;5.30;99.90;;;;;;4993797;28;19929;-72
2023/01/02 02:24:02;;;;;;;;;;;5.30;99.90;;;;;;5010068;28;19926;-71
2023/01/02 02:26:50;;;;;;;;;;;5.30;99.90;;;;;;5027282;28;19933;-72
2023/01/02 02:29:25;;;;;;;;;;;5.20;99.90;;;;;;5020599;28;20339;-71
2023/01/02 02:32:00;;;;;;;;;;;5.30;99.90;;;;;;5015872;28;19983;-72
2023/01/02 02:34:47;;;;;;;;;;;5.30;99.90;;;;;;5019085;28;19925;-72
2023/01/02 02:37:23;;;;;;;;;;;5.30;99.90;;;;;;5012437;28;20466;-72
2023/01/02 02:39:52;;;;;;;;;;;5.30;99.90;;;;;;5016769;28;20396;-71
2023/01/02 02:42:42;;;;;;;;;;;5.30;99.90;;;;;;4995859;28;20003;-72
2023/01/02 02:45:19;;;;;;;;;;;5.30;99.90;;;;;;5010935;28;19925;-71
2023/01/02 02:47:51;;;;;;;;;;;5.30;99.90;;;;;;5010330;28;20002;-72
2023/01/02 02:50:32;;;;;;;;;;;5.30;99.90;;;;;;5027745;28;20388;-71
2023/01/02 02:53:03;;;;;;;;;;;5.30;99.90;;;;;;4996615;28;19925;-72
2023/01/02 02:55:42;;;;;;;;;;;5.30;99.90;;;;;;5012630;28;19929;-74
2023/01/02 02:58:12;;;;;;;;;;;5.30;99.90;;;;;;5007024;28;19963;-72
2023/01/02 03:00:41;;;;;;;;;;;5.30;99.90;;;;;;4994576;28;19929;-71
2023/01/02 03:03:17;;;;;;;;;;;5.20;99.90;;;;;;5011712;28;19932;-71
2023/01/02 03:06:05;;;;;;;;;;;5.20;99.90;;;;;;5010080;28;19931;-71
2023/01/02 03:08:42;;;;;;;;;;;5.20;99.90;;;;;;5005077;28;19960;-72
2023/01/02 03:11:12;;;;;;;;;;;5.20;99.90;;;;;;5007518;28;19936;-72
2023/01/02 03:13:52;;;;;;;;;;;5.20;99.90;;;;;;4991700;28;20016;-71
2023/01/02 03:16:21;;;;;;;;;;;5.20;99.90;;;;;;5011125;28;20032;-71
2023/01/02 03:18:50;;;;;;;;;;;5.20;99.90;;;;;;5009311;28;20068;-71
2023/01/02 03:21:41;;;;;;;;;;;5.20;99.90;;;;;;5030386;28;19956;-71
2023/01/02 03:24:13;;;;;;;;;;;5.20;99.90;;;;;;5025362;28;19929;-71
2023/01/02 03:26:44;;;;;;;;;;;5.20;99.90;;;;;;4991339;28;19933;-71
2023/01/02 03:29:19;;;;;;;;;;;5.30;99.90;;;;;;5022730;28;20078;-71
2023/01/02 03:31:50;;;;;;;;;;;5.30;99.90;;;;;;5014336;28;19983;-72
2023/01/02 03:34:23;;;;;;;;;;;5.30;99.90;;;;;;5011955;28;19929;-72
2023/01/02 03:36:57;;;;;;;;;;;5.30;99.90;;;;;;5014089;28;19933;-72
2023/01/02 03:39:28;;;;;;;;;;;5.30;99.90;;;;;;5009156;28;19929;-71
2023/01/02 03:42:09;;;;;;;;;;;5.30;99.90;;;;;;5010924;28;19972;-71
2023/01/02 03:44:45;;;;;;;;;;;5.20;99.90;;;;;;5008839;28;19929;-72
2023/01/02 03:47:23;;;;;;;;;;;5.20;99.90;;;;;;5011165;28;19932;-72
2023/01/02 03:49:53;;;;;;;;;;;5.20;99.90;;;;;;5015513;28;20032;-71
2023/01/02 03:52:30;;;;;;;;;;;5.20;99.90;;;;;;5025203;28;19925;-71
2023/01/02 03:55:01;;;;;;;;;;;5.10;99.90;;;;;;4996336;28;19925;-71
2023/01/02 03:57:34;;;;;;;;;;;5.10;99.90;;;;;;5019921;28;19971;-72
2023/01/02 04:00:11;;;;;;;;;;;5.10;99.90;;;;;;5010275;28;20400;-72
2023/01/02 04:02:57;;;;;;;;;;;5.10;99.90;;;;;;5024218;28;19948;-72
2023/01/02 04:05:26;;;;;;;;;;;5.00;99.90;;;;;;5027613;28;19971;-71
2023/01/02 04:08:03;;;;;;;;;;;5.00;99.90;;;;;;5023810;28;19933;-73
2023/01/02 04:10:34;;;;;;;;;;;5.00;99.90;;;;;;5011225;28;19956;-70
2023/01/02 04:13:12;;;;;;;;;;;5.00;99.90;;;;;;4999617;28;19960;-71
2023/01/02 04:15:44;;;;;;;;;;;5.00;99.90;;;;;;4999596;28;19925;-72
2023/01/02 04:18:24;;;;;;;;;;;5.00;99.90;;;;;;5014646;28;20017;-74
2023/01/02 04:20:56;;;;;;;;;;;4.90;99.90;;;;;;5014088;28;19929;-72
2023/01/02 04:23:37;;;;;;;;;;;5.00;99.90;;;;;;4999465;28;19931;-72
2023/01/02 04:26:12;;;;;;;;;;;5.00;99.90;;;;;;5009490;28;20372;-71
2023/01/02 04:28:41;;;;;;;;;;;5.00;99.90;;;;;;5028692;28;19932;-70
2023/01/02 04:31:17;;;;;;;;;;;5.00;99.90;;;;;;4997920;28;19929;-71
2023/01/02 04:33:58;;;;;;;;;;;5.00;99.90;;;;;;5008497;28;19925;-72
2023/01/02 04:36:27;;;;;;;;;;;5.00;99.90;;;;;;5014339;28;19925;-72
2023/01/02 04:38:56;;;;;;;;;;;5.00;99.90;;;;;;5015352;28;19929;-71
2023/01/02 04:41:26;;;;;;;;;;;5.00;99.90;;;;;;4997780;28;20010;-72
2023/01/02 04:43:55;;;;;;;;;;;4.90;99.90;;;;;;5002599;28;19935;-71
2023/01/02 04:46:25;;;;;;;;;;;4.90;99.90;;;;;;5022390;28;19961;-72
2023/01/02 04:48:55;;;;;;;;;;;4.90;99.90;;;;;;5020372;28;19929;-72
2023/01/02 04:51:22;;;;;;;;;;;4.90;99.90;;;;;;5017719;28;19941;-71
2023/01/02 04:53:50;;;;;;;;;;;4.90;99.90;;;;;;5014113;28;19925;-71
2023/01/02 04:56:18;;;;;;;;;;;4.90;99.90;;;;;;4998611;28;19932;-72
2023/01/02 04:58:46;;;;;;;;;;;4.90;99.90;;;;;;5023172;28;19929;-70
2023/01/02 05:01:17;;;;;;;;;;;4.80;99.90;;;;;;5014055;28;20296;-71
2023/01/02 05:03:47;;;;;;;;;;;4.80;99.90;;;;;;5026958;28;19925;-71
2023/01/02 05:06:17;;;;;;;;;;;4.70;99.90;;;;;;5015403;28;19925;-71
2023/01/02 05:08:44;;;;;;;;;;;4.70;99.90;;;;;;4982854;28;19975;-71
2023/01/02 05:11:14;;;;;;;;;;;4.70;99.90;;;;;;4997125;28;19925;-72
2023/01/02 05:13:44;;;;;;;;;;;4.70;99.90;;;;;;5027328;28;20032;-72
2023/01/02 05:16:14;;;;;;;;;;;4.70;99.90;;;;;;5028994;28;20016;-72
2023/01/02 05:18:43;;;;;;;;;;;4.60;99.90;;;;;;5009539;28;19929;-71
2023/01/02 05:24:08;;;;;;;;;;;4.60;99.90;;;;;;4987737;28;19930;-71
2023/01/02 05:26:37;;;;;;;;;;;4.60;99.90;;;;;;5006669;28;19987;-71
2023/01/02 05:29:07;;;;;;;;;;;4.60;99.90;;;;;;4988171;28;19976;-72
2023/01/02 05:31:36;;;;;;;;;;;4.50;99.90;;;;;;5010395;28;20298;-73
2023/01/02 05:34:09;;;;;;;;;;;4.50;99.90;;;;;;5024836;28;19972;-71
2023/01/02 05:36:38;;;;;;;;;;;4.50;99.90;;;;;;4998752;28;19948;-72
2023/01/02 05:39:08;;;;;;;;;;;4.50;99.90;;;;;;5011691;28;19929;-73
2023/01/02 05:41:38;;;;;;;;;;;4.50;99.90;;;;;;4996051;28;20422;-73
2023/01/02 05:44:07;;;;;;;;;;;4.50;99.90;;;;;;5010474;28;19995;-73
2023/01/02 05:46:37;;;;;;;;;;;4.40;99.90;;;;;;5027903;28;19969;-73
2023/01/02 05:49:09;;;;;;;;;;;4.50;99.90;;;;;;5024696;28;19925;-73
2023/01/02 05:51:40;;;;;;;;;;;4.40;99.90;;;;;;5001834;28;20122;-71
2023/01/02 05:54:09;;;;;;;;;;;4.40;99.90;;;;;;5028194;28;20008;-73
2023/01/02 05:56:38;;;;;;;;;;;4.50;99.90;;;;;;4996599;28;19925;-73
2023/01/02 05:59:07;;;;;;;;;;;4.50;99.90;;;;;;5026938;28;19929;-73
2023/01/02 06:01:37;;;;;;;;;;;4.50;99.90;;;;;;5011221;28;20011;-73
2023/01/02 06:04:07;;;;;;;;;;;4.50;99.90;;;;;;5011770;28;19951;-73
2023/01/02 06:06:41;;;;;;;;;;;4.50;99.90;;;;;;5012685;28;19926;-71
2023/01/02 06:09:16;;;;;;;;;;;4.50;99.90;;;;;;5010961;28;19935;-73
2023/01/02 06:11:49;;;;;;;;;;;4.50;99.90;;;;;;5029732;28;19929;-72
2023/01/02 06:14:18;;;;;;;;;;;4.50;99.90;;;;;;5027018;28;20010;-73
2023/01/02 06:16:49;;;;;;;;;;;4.50;99.90;;;;;;5006013;28;19925;-72
2023/01/02 06:19:23;;;;;;;;;;;4.40;99.90;;;;;;4998516;28;20391;-72
2023/01/02 06:21:54;;;;;;;;;;;4.50;99.90;;;;;;4992973;28;19925;-73
2023/01/02 06:24:23;;;;;;;;;;;4.50;99.90;;;;;;5015322;28;20387;-73
2023/01/02 06:27:17;;;;;;;;;;;4.50;99.90;;;;;;5006630;28;20289;-71
2023/01/02 06:29:48;;;;;;;;;;;4.50;99.90;;;;;;5017603;28;19944;-71
2023/01/02 06:32:15;;;;;;;;;;;4.50;99.90;;;;;;5025678;28;19917;-71
2023/01/02 06:34:45;;;;;;;;;;;4.50;99.90;;;;;;5021385;28;20361;-72
2023/01/02 06:37:14;;;;;;;;;;;4.50;99.90;;;;;;5020523;28;19929;-73
2023/01/02 06:39:44;;;;;;;;;;;4.50;99.90;;;;;;5002398;28;19940;-72
2023/01/02 06:42:13;;;;;;;;;;;4.50;99.90;;;;;;4997994;28;19978;-73
2023/01/02 06:44:43;;;;;;;;;;;4.50;99.90;;;;;;5025350;28;19964;-72
2023/01/02 06:47:11;;;;;;;;;;;4.50;99.90;;;;;;4992851;28;19968;-73
2023/01/02 06:49:39;;;;;;;;;;;4.50;99.90;;;;;;5010976;28;20406;-72
2023/01/02 06:52:10;;;;;;;;;;;4.50;99.90;;;;;;5014738;28;20021;-73
2023/01/02 06:54:39;;;;;;;;;;;4.50;99.90;;;;;;5023042;28;20014;-73
2023/01/02 06:57:09;;;;;;;;;;;4.50;99.90;;;;;;5021075;28;19930;-72
2023/01/02 06:59:37;;;;;;;;;;;4.50;99.90;;;;;;5016148;28;19972;-72
2023/01/02 07:02:10;;;;;;;;;;;4.50;99.90;;;;;;4995262;28;20543;-73
2023/01/02 07:04:39;;;;;;;;;;;4.40;99.90;;;;;;4993002;28;19925;-73
2023/01/02 07:07:08;;;;;;;;;;;4.40;99.90;;;;;;4993941;28;19933;-73
2023/01/02 07:09:37;;;;;;;;;;;4.40;99.90;;;;;;5000254;28;19929;-73
2023/01/02 07:12:07;;;;;;;;;;;4.40;99.90;;;;;;5002034;28;19940;-72
2023/01/02 07:14:36;;;;;;;;;;;4.40;99.90;;;;;;5005894;28;19925;-72
2023/01/02 07:17:05;;;;;;;;;;;4.50;99.90;;;;;;5009622;28;19929;-73
2023/01/02 07:19:35;;;;;;;;;;;4.50;99.90;;;;;;4994464;28;19929;-72
2023/01/02 07:22:03;;;;;;;;;;;4.50;99.90;;;;;;5014556;28;19931;-72
2023/01/02 07:24:35;;;;;;;;;;;4.50;99.90;;;;;;5010150;28;20450;-73
2023/01/02 07:27:03;;;;;;;;;;;4.60;99.90;;;;;;5001311;28;19929;-72
2023/01/02 07:29:34;;;;;;;;;;;4.60;99.90;;;;;;5010734;28;19935;-72
2023/01/02 07:32:03;;;;;;;;;;;4.70;99.90;;;;;;4991698;28;19933;-73
2023/01/02 07:34:33;;;;;;;;;;;4.70;99.90;;;;;;5011948;28;19940;-73
2023/01/02 07:37:02;;;;;;;;;;;4.80;99.90;;;;;;5025590;28;19925;-73
2023/01/02 07:39:31;;;;;;;;;;;4.80;99.90;;;;;;5024851;28;20012;-70
2023/01/02 07:42:01;;;;;;;;;;;4.80;99.90;;;;;;5018564;28;20561;-73
2023/01/02 07:44:33;;;;;;;;;;;4.80;99.90;;;;;;5013812;28;20027;-71
2023/01/02 07:47:01;;;;;;;;;;;4.90;99.90;;;;;;5020682;28;19936;-73
2023/01/02 07:49:29;;;;;;;;;;;4.90;99.90;;;;;;5001444;28;19925;-73
2023/01/02 07:51:58;;;;;;;;;;;4.90;99.90;;;;;;5002608;28;19983;-73
2023/01/02 07:54:28;;;;;;;;;;;4.90;99.90;;;;;;4992432;28;19933;-73
2023/01/02 07:56:56;;;;;;;;;;;4.90;99.90;;;;;;5011359;28;19930;-72
2023/01/02 07:59:25;;;;;;;;;;;5.00;99.90;;;;;;5025866;28;19941;-72
2023/01/02 08:01:53;;;;;;;;;;;5.00;99.90;;;;;;4996970;28;20347;-73
2023/01/02 08:04:23;;;;;;;;;;;5.10;99.90;;;;;;5010616;28;20304;-72
2023/01/02 08:06:51;;;;;;;;;;;5.10;99.90;;;;;;5002981;28;20015;-72
2023/01/02 08:09:23;;;;;;;;;;;5.20;99.90;;;;;;5005036;28;20011;-72
2023/01/02 08:11:53;;;;;;;;;;;5.20;99.90;;;;;;5014581;28;19936;-73
2023/01/02 08:14:23;;;;;;;;;;;5.30;99.90;;;;;;4997347;28;20019;-73
2023/01/02 08:16:51;;;;;;;;;;;5.30;99.90;;;;;;5008074;28;19925;-73
2023/01/02 08:19:22;;;;;;;;;;;5.40;99.90;;;;;;5013332;28;19929;-73
2023/01/02 08:21:55;;;;;;;;;;;5.40;99.90;;;;;;5012998;28;20019;-73
2023/01/02 08:24:25;;;;;;;;;;;5.50;99.90;;;;;;5016273;28;20268;-73
2023/01/02 08:26:55;;;;;;;;;;;5.60;99.90;;;;;;4999369;28;20388;-72
2023/01/02 08:29:25;;;;;;;;;;;5.70;99.90;;;;;;5012950;28;19925;-74
2023/01/02 08:31:58;;;;;;;;;;;5.80;99.90;;;;;;5013700;28;20358;-71
2023/01/02 08:34:27;;;;;;;;;;;5.90;99.90;;;;;;4997104;28;20446;-71
2023/01/02 08:36:59;;;;;;;;;;;6.00;99.90;;;;;;5012342;28;20297;-73
2023/01/02 08:39:29;;;;;;;;;;;6.10;99.90;;;;;;5029249;28;19932;-73
2023/01/02 08:42:00;;;;;;;;;;;6.20;99.90;;;;;;4998817;28;20020;-73
2023/01/02 08:44:28;;;;;;;;;;;6.30;99.90;;;;;;4997733;28;19931;-73
2023/01/02 08:46:58;;;;;;;;;;;6.40;99.90;;;;;;5016219;28;19940;-73
2023/01/02 08:49:28;;;;;;;;;;;6.50;99.90;;;;;;5015287;28;19932;-73
2023/01/02 08:52:23;;;;;;;;;;;6.60;99.90;;;;;;5013587;28;20020;-72
2023/01/02 08:54:54;;;;;;;;;;;6.70;99.90;;;;;;5012976;28;20011;-73
2023/01/02 08:57:37;;;;;;;;;;;6.80;99.90;;;;;;5014659;28;19997;-72
2023/01/02 09:00:07;;;;;;;;;;;6.90;99.90;;;;;;5021925;28;19961;-73
2023/01/02 09:02:40;;;;;;;;;;;7.00;99.90;;;;;;5010831;28;19933;-73
2023/01/02 09:05:13;;;;;;;;;;;7.10;99.90;;;;;;4996781;28;20023;-73
2023/01/02 09:07:42;;;;;;;;;;;7.20;99.90;;;;;;4992951;28;19932;-74
2023/01/02 09:10:11;;;;;;;;;;;7.30;99.90;;;;;;5008797;28;19932;-74
2023/01/02 09:12:43;;;;;;;;;;;7.30;99.90;;;;;;5010671;28;19932;-72
2023/01/02 09:15:12;;;;;;;;;;;7.50;99.90;;;;;;5013465;28;19925;-72
2023/01/02 09:17:43;;;;;;;;;;;7.60;99.90;;;;;;5007642;28;19926;-73
2023/01/02 09:20:12;;;;;;;;;;;7.60;99.90;;;;;;5011087;28;19924;-71
2023/01/02 09:22:43;;;;;;;;;;;7.70;99.90;;;;;;5007746;28;20020;-73
2023/01/02 09:25:12;;;;;;;;;;;7.80;99.90;;;;;;5011003;28;19925;-74
2023/01/02 09:27:41;;;;;;;;;;;8.00;99.90;;;;;;4994770;28;19999;-73
2023/01/02 09:30:11;;;;;;;;;;;8.10;99.90;;;;;;5011045;28;19933;-73
2023/01/02 09:32:40;;;;;;;;;;;8.20;99.90;;;;;;4998139;28;19925;-72
2023/01/02 09:35:10;;;;;;;;;;;8.40;99.90;;;;;;5020511;28;20340;-73
2023/01/02 09:37:38;;;;;;;;;;;8.50;99.90;;;;;;5022591;28;19959;-73
2023/01/02 09:40:08;;;;;;;;;;;8.70;99.90;;;;;;5005109;28;19929;-73
2023/01/02 09:42:37;;;;;;;;;;;8.80;99.90;;;;;;4996638;28;20021;-73
2023/01/02 09:45:06;;;;;;;;;;;8.90;99.90;;;;;;5015686;28;19990;-73
2023/01/02 09:47:38;;;;;;;;;;;9.00;99.90;;;;;;4996186;28;19925;-74
2023/01/02 09:50:13;;;;;;;;;;;9.00;99.90;;;;;;5010129;28;19971;-73
2023/01/02 09:52:44;;;;;;;;;;;9.10;99.90;;;;;;4994943;28;20295;-74
2023/01/02 09:55:14;;;;;;;;;;;9.20;99.90;;;;;;5011768;28;20015;-72
2023/01/02 09:58:02;;;;;;;;;;;9.20;99.90;;;;;;5030192;28;20003;-73
2023/01/02 10:00:34;;;;;;;;;;;9.20;99.90;;;;;;5010027;28;20295;-74
2023/01/02 10:03:26;;;;;;;;;;;9.30;99.90;;;;;;5010829;28;20323;-71
2023/01/02 10:06:14;;;;;;;;;;;9.40;99.90;;;;;;5012096;28;20343;-73
2023/01/02 10:09:02;;;;;;;;;;;9.40;99.90;;;;;;4997272;28;19936;-74
2023/01/02 10:11:40;;;;;;;;;;;9.50;99.90;;;;;;5013599;28;20295;-73
2023/01/02 10:14:28;;;;;;;;;;;9.60;99.90;;;;;;5007010;28;20388;-74
2023/01/02 10:16:59;;;;;;;;;;;9.60;99.90;;;;;;5009961;28;20400;-74
2023/01/02 10:19:30;;;;;;;;;;;9.70;99.90;;;;;;4999913;28;20250;-73
2023/01/02 10:22:00;;;;;;;;;;;9.80;99.90;;;;;;5011481;28;20316;-73
2023/01/02 10:24:46;;;;;;;;;;;9.80;99.90;;;;;;5010524;28;19930;-73
2023/01/02 10:27:21;;;;;;;;;;;9.90;99.90;;;;;;5025238;28;20376;-73
2023/01/02 10:30:10;;;;;;;;;;;10.00;99.90;;;;;;5009377;28;20039;-73
2023/01/02 10:32:57;;;;;;;;;;;10.00;99.90;;;;;;5014138;28;19929;-72
2023/01/02 10:36:00;;;;;;;;;;;10.20;99.90;;;;;;5025854;28;19929;-74
2023/01/02 10:38:34;;;;;;;;;;;10.30;99.90;;;;;;5027308;28;20347;-74
2023/01/02 10:41:03;;;;;;;;;;;10.40;99.90;;;;;;5009990;28;19935;-74
2023/01/02 10:43:35;;;;;;;;;;;10.50;99.90;;;;;;5014720;28;19947;-73
2023/01/02 10:46:06;;;;;;;;;;;10.60;99.90;;;;;;5025099;28;20295;-74
2023/01/02 10:48:36;;;;;;;;;;;10.70;99.90;;;;;;5017993;28;20019;-73
2023/01/02 10:51:09;;;;;;;;;;;10.80;99.90;;;;;;5008635;28;19943;-74
2023/01/02 10:53:38;;;;;;;;;;;10.90;99.90;;;;;;5011813;28;20299;-75
2023/01/02 10:56:10;;;;;;;;;;;11.00;99.90;;;;;;4995796;28;20392;-73
2023/01/02 10:58:44;;;;;;;;;;;11.10;99.90;;;;;;5011902;28;20364;-73
2023/01/02 11:01:17;;;;;;;;;;;11.20;99.90;;;;;;5009994;28;20478;-73
2023/01/02 11:03:56;;;;;;;;;;;11.30;99.90;;;;;;5026403;28;19925;-71
2023/01/02 11:06:35;;;;;;;;;;;11.30;99.90;;;;;;5011104;28;19936;-72
2023/01/02 11:09:19;;;;;;;;;;;11.40;99.90;;;;;;5032576;28;19976;-74
2023/01/02 11:11:50;;;;;;;;;;;11.50;99.90;;;;;;5030171;28;20362;-73
2023/01/02 11:14:23;;;;;;;;;;;11.70;99.90;;;;;;5004304;28;19929;-73
2023/01/02 11:16:50;;;;;;;;;;;11.90;99.90;;;;;;5015355;28;20020;-73
2023/01/02 11:19:38;;;;;;;;;;;12.20;99.90;;;;;;5014702;28;20107;-73
2023/01/02 11:22:11;;;;;;;;;;;12.40;99.90;;;;;;5028902;28;19925;-72
2023/01/02 11:24:51;;;;;;;;;;;12.50;99.90;;;;;;5004198;28;20292;-73
2023/01/02 11:27:29;;;;;;;;;;;12.60;99.90;;;;;;5008238;28;20011;-73
2023/01/02 11:29:57;;;;;;;;;;;12.70;99.90;;;;;;5009943;28;19936;-73
2023/01/02 11:32:27;;;;;;;;;;;12.70;99.90;;;;;;5007440;28;19933;-73
2023/01/02 11:35:01;;;;;;;;;;;12.80;99.90;;;;;;5023400;28;19933;-73
2023/01/02 11:37:33;;;;;;;;;;;12.90;99.90;;;;;;5004977;28;19932;-71
2023/01/02 11:40:05;;;;;;;;;;;12.90;99.90;;;;;;5010542;28;19933;-72
2023/01/02 11:45:35;;;;;;;;;;;13.10;99.90;;;;;;5020275;28;20364;-71
2023/01/02 11:48:06;;;;;;;;;;;13.20;99.90;;;;;;5018588;28;20312;-72
2023/01/02 11:50:42;;;;;;;;;;;13.20;99.90;;;;;;5010661;28;20369;-73
2023/01/02 11:53:10;;;;;;;;;;;13.30;99.90;;;;;;4995524;28;19925;-72
2023/01/02 11:55:54;;;;;;;;;;;13.40;99.90;;;;;;5012823;28;20019;-71
2023/01/02 11:58:29;;;;;;;;;;;13.40;99.90;;;;;;4987460;28;19932;-71
2023/01/02 12:01:16;;;;;;;;;;;13.40;99.90;;;;;;5018981;28;19976;-72
2023/01/02 12:03:48;;;;;;;;;;;13.40;99.90;;;;;;5017292;28;20729;-71
2023/01/02 12:06:24;;;;;;;;;;;13.40;99.90;;;;;;5029846;28;19925;-71
2023/01/02 12:09:01;;;;;;;;;;;13.40;99.90;;;;;;5011322;28;19925;-72
2023/01/02 12:11:48;;;;;;;;;;;13.40;99.90;;;;;;5014524;28;20303;-73
2023/01/02 12:14:18;;;;;;;;;;;13.40;99.90;;;;;;5003670;28;19925;-72
2023/01/02 12:17:00;;;;;;;;;;;13.30;99.90;;;;;;4996052;28;19929;-71
2023/01/02 12:19:52;;;;;;;;;;;13.40;99.90;;;;;;5003196;28;19940;-72
2023/01/02 12:22:47;;;;;;;;;;;13.30;99.90;;;;;;5019910;28;20028;-72
2023/01/02 12:25:32;;;;;;;;;;;13.30;99.90;;;;;;5014160;28;19925;-74
2023/01/02 12:28:18;;;;;;;;;;;13.20;99.90;;;;;;5027094;28;20327;-72
2023/01/02 12:30:57;;;;;;;;;;;13.10;99.90;;;;;;5016801;28;19936;-72
2023/01/02 12:33:38;;;;;;;;;;;12.90;99.90;;;;;;5022351;28;20480;-73
2023/01/02 12:36:33;;;;;;;;;;;12.80;99.90;;;;;;5014269;28;19933;-72
2023/01/02 12:39:22;;;;;;;;;;;12.80;99.90;;;;;;5010839;28;19931;-72
2023/01/02 12:42:11;;;;;;;;;;;12.80;99.90;;;;;;5001217;28;20402;-73
2023/01/02 12:44:46;;;;;;;;;;;12.70;99.90;;;;;;5023542;28;19944;-73
2023/01/02 12:47:18;;;;;;;;;;;12.80;99.90;;;;;;5038525;28;19955;-73
2023/01/02 12:50:13;;;;;;;;;;;12.70;99.90;;;;;;5023713;28;19929;-72
2023/01/02 12:52:59;;;;;;;;;;;12.80;99.90;;;;;;5003529;28;20020;-72
2023/01/02 12:55:45;;;;;;;;;;;12.80;99.90;;;;;;5032694;28;19961;-72
2023/01/02 12:58:23;;;;;;;;;;;12.90;99.90;;;;;;5015702;28;19925;-73
2023/01/02 13:00:54;;;;;;;;;;;12.90;99.90;;;;;;5014675;28;19929;-71
2023/01/02 13:03:36;;;;;;;;;;;13.00;99.90;;;;;;5015704;28;19975;-73
2023/01/02 13:06:18;;;;;;;;;;;13.00;99.90;;;;;;4999730;28;20554;-72
2023/01/02 13:09:04;;;;;;;;;;;13.00;99.90;;;;;;5012068;28;20296;-71
2023/01/02 13:11:43;;;;;;;;;;;13.00;99.90;;;;;;5007252;28;20012;-73
2023/01/02 13:14:22;;;;;;;;;;;13.00;99.90;;;;;;5010471;28;19929;-72
2023/01/02 13:16:56;;;;;;;;;;;12.90;99.90;;;;;;5011936;28;20380;-72
2023/01/02 13:19:32;;;;;;;;;;;12.90;99.90;;;;;;5027811;28;20021;-72
2023/01/02 13:22:07;;;;;;;;;;;12.90;99.90;;;;;;5012806;28;20015;-71
2023/01/02 13:24:39;;;;;;;;;;;12.90;99.90;;;;;;5014529;28;20012;-72
2023/01/02 13:27:09;;;;;;;;;;;12.80;99.90;;;;;;5013959;28;20416;-72
2023/01/02 13:29:40;;;;;;;;;;;12.90;99.90;;;;;;5011236;28;19979;-71
2023/01/02 13:32:28;;;;;;;;;;;12.80;99.90;;;;;;5011987;28;19929;-73
2023/01/02 13:34:59;;;;;;;;;;;12.80;99.90;;;;;;5011437;28;19926;-72
2023/01/02 13:37:29;;;;;;;;;;;12.80;99.90;;;;;;4997851;28;19926;-72
2023/01/02 13:40:00;;;;;;;;;;;12.90;99.90;;;;;;4999709;28;19969;-72
2023/01/02 13:45:33;;;;;;;;;;;12.90;99.90;;;;;;5025607;28;19929;-72
2023/01/02 13:48:02;;;;;;;;;;;12.90;99.90;;;;;;5012106;28;19925;-72
2023/01/02 13:50:32;;;;;;;;;;;12.90;99.90;;;;;;5012213;28;20003;-72
2023/01/02 13:53:06;;;;;;;;;;;12.90;99.90;;;;;;5027367;28;20423;-72
2023/01/02 13:55:40;;;;;;;;;;;12.80;99.90;;;;;;5011658;28;19925;-72
2023/01/02 13:58:21;;;;;;;;;;;12.80;99.90;;;;;;5013073;28;19925;-71
2023/01/02 14:01:22;;;;;;;;;;;12.80;99.90;;;;;;5011627;28;20531;-71
2023/01/02 14:04:12;;;;;;;;;;;12.80;99.90;;;;;;5011145;28;20456;-71
2023/01/02 14:06:41;;;;;;;;;;;12.70;99.90;;;;;;5012812;28;19925;-71
2023/01/02 14:09:12;;;;;;;;;;;12.70;99.90;;;;;;4997029;28;20400;-71
2023/01/02 14:11:48;;;;;;;;;;;12.70;99.90;;;;;;4996036;28;20386;-72
2023/01/02 14:14:28;;;;;;;;;;;12.60;99.90;;;;;;5028816;28;19929;-72
2023/01/02 14:17:12;;;;;;;;;;;12.70;99.90;;;;;;5028356;28;20072;-72
2023/01/02 14:19:42;;;;;;;;;;;12.60;99.90;;;;;;5025296;28;20603;-72
2023/01/02 14:22:15;;;;;;;;;;;12.60;99.90;;;;;;5012749;28;19925;-72
2023/01/02 14:24:48;;;;;;;;;;;12.50;99.90;;;;;;5030200;28;19932;-72
2023/01/02 14:27:32;;;;;;;;;;;12.50;99.90;;;;;;5030612;28;20020;-71
2023/01/02 14:30:07;;;;;;;;;;;12.60;99.90;;;;;;5004119;28;20016;-72
2023/01/02 14:32:38;;;;;;;;;;;12.60;99.90;;;;;;5009356;28;20415;-74
2023/01/02 14:35:22;;;;;;;;;;;12.50;99.90;;;;;;5011489;28;19973;-70
2023/01/02 14:38:15;;;;;;;;;;;12.50;99.90;;;;;;5011239;28;19929;-71
2023/01/02 14:40:45;;;;;;;;;;;12.60;99.90;;;;;;5010721;28;19929;-72
2023/01/02 14:43:31;;;;;;;;;;;12.60;99.90;;;;;;5011398;28;20392;-73
2023/01/02 14:46:13;;;;;;;;;;;12.60;99.90;;;;;;5026144;28;19933;-71
2023/01/02 14:48:46;;;;;;;;;;;12.50;99.90;;;;;;5011548;28;19925;-70
2023/01/02 14:51:16;;;;;;;;;;;12.40;99.90;;;;;;4991772;28;19928;-70
2023/01/02 14:53:52;;;;;;;;;;;12.40;99.90;;;;;;5011375;28;20024;-69
2023/01/02 14:56:24;;;;;;;;;;;12.30;99.90;;;;;;5011379;28;19932;-70
2023/01/02 14:58:54;;;;;;;;;;;12.20;99.90;;;;;;4995807;28;20039;-69
2023/01/02 15:01:26;;;;;;;;;;;12.10;99.90;;;;;;5009094;28;19929;-70
2023/01/02 15:04:05;;;;;;;;;;;12.00;99.90;;;;;;5012185;28;19979;-71
2023/01/02 15:06:40;;;;;;;;;;;11.80;99.90;;;;;;5011336;28;20020;-72
2023/01/02 15:09:14;;;;;;;;;;;11.70;99.90;;;;;;4995569;28;20417;-73
2023/01/02 15:14:40;;;;;;;;;;;11.60;99.90;;;;;;5012118;28;20628;-72